createdAt,value
2022-11-21T00:01:41.481Z,6.15
2022-11-21T00:04:08.213Z,6.07
2022-11-21T00:06:37.535Z,5.45
2022-11-21T00:09:04.226Z,6.82
2022-11-21T00:11:34.202Z,6.63
2022-11-21T00:14:05.954Z,5.40
2022-11-21T00:16:32.651Z,6.05
2022-11-21T00:19:00.149Z,9.52
2022-11-21T00:21:26.873Z,8.43
2022-11-21T00:23:56.662Z,7.75
2022-11-21T00:26:26.345Z,9.95
2022-11-21T00:28:54.903Z,15.38
2022-11-21T00:31:25.081Z,14.27
2022-11-21T00:33:51.804Z,13.43
2022-11-21T00:36:18.575Z,6.85
2022-11-21T00:38:47.314Z,13.32
2022-11-21T00:41:19.875Z,22.02
2022-11-21T00:46:13.146Z,19.08
2022-11-21T00:48:44.968Z,24.45
2022-11-21T00:51:12.516Z,24.23
2022-11-21T00:53:40.809Z,25.75
2022-11-21T00:56:11.810Z,15.93
2022-11-21T00:58:38.893Z,23.45
2022-11-21T01:01:16.020Z,15.15
2022-11-21T01:03:47.878Z,23.08
2022-11-21T01:06:15.878Z,23.08
2022-11-21T01:08:46.084Z,24.25
2022-11-21T01:11:28.824Z,25.48
2022-11-21T01:13:56.060Z,25.30
2022-11-21T01:16:27.294Z,26.17
2022-11-21T01:18:56.957Z,24.60
2022-11-21T01:21:29.087Z,26.58
2022-11-21T01:23:56.842Z,25.23
2022-11-21T01:26:26.778Z,25.20
2022-11-21T01:28:53.899Z,25.77
2022-11-21T01:31:27.040Z,24.60
2022-11-21T01:33:54.565Z,24.50
2022-11-21T01:36:29.431Z,22.88
2022-11-21T01:39:00.160Z,24.95
2022-11-21T01:41:33.451Z,22.58
2022-11-21T01:44:06.058Z,22.15
2022-11-21T01:49:26.906Z,18.92
2022-11-21T01:52:08.848Z,20.38
2022-11-21T01:54:43.815Z,18.67
2022-11-21T01:57:12.596Z,17.65
2022-11-21T01:59:53.257Z,17.38
2022-11-21T02:02:23.793Z,15.75
2022-11-21T02:04:52.990Z,15.32
2022-11-21T02:07:23.144Z,14.85
2022-11-21T02:09:59.828Z,13.02
2022-11-21T02:12:34.496Z,13.77
2022-11-21T02:15:02.009Z,12.52
2022-11-21T02:17:35.458Z,11.93
2022-11-21T02:20:11.564Z,11.98
2022-11-21T02:23:06.494Z,11.88
2022-11-21T02:25:38.282Z,10.98
2022-11-21T02:28:12.867Z,11.93
2022-11-21T02:30:43.118Z,11.23
2022-11-21T02:33:13.446Z,11.00
2022-11-21T02:35:40.677Z,11.40
2022-11-21T02:38:11.634Z,11.65
2022-11-21T02:40:44.292Z,11.68
2022-11-21T02:43:13.274Z,11.60
2022-11-21T02:45:42.481Z,11.63
2022-11-21T02:48:09.486Z,11.68
2022-11-21T02:50:38.669Z,10.82
2022-11-21T02:53:07.397Z,11.07
2022-11-21T02:55:37.223Z,11.02
2022-11-21T02:58:05.409Z,10.80
2022-11-21T03:00:34.146Z,11.65
2022-11-21T03:03:04.004Z,11.27
2022-11-21T03:05:31.244Z,11.10
2022-11-21T03:07:57.999Z,12.40
2022-11-21T03:10:24.786Z,12.23
2022-11-21T03:12:51.416Z,11.55
2022-11-21T03:15:18.248Z,12.95
2022-11-21T03:17:50.213Z,12.80
2022-11-21T03:20:24.253Z,12.20
2022-11-21T03:22:50.971Z,12.23
2022-11-21T03:25:20.287Z,12.02
2022-11-21T03:27:47.097Z,12.77
2022-11-21T03:30:15.255Z,11.93
2022-11-21T03:32:46.585Z,11.77
2022-11-21T03:35:13.873Z,11.63
2022-11-21T03:37:45.600Z,11.00
2022-11-21T03:40:12.984Z,10.70
2022-11-21T03:42:39.699Z,10.07
2022-11-21T03:45:07.184Z,10.00
2022-11-21T03:47:40.423Z,8.40
2022-11-21T03:50:13.360Z,8.70
2022-11-21T03:52:41.755Z,6.50
2022-11-21T03:55:11.442Z,6.35
2022-11-21T03:57:39.796Z,6.20
2022-11-21T04:00:07.118Z,6.22
2022-11-21T04:02:39.734Z,6.30
2022-11-21T04:05:09.409Z,5.90
2022-11-21T04:07:36.344Z,5.65
2022-11-21T04:10:03.445Z,5.68
2022-11-21T04:12:30.183Z,6.15
2022-11-21T04:14:57.135Z,5.43
2022-11-21T04:17:28.030Z,5.45
2022-11-21T04:19:54.820Z,5.10
2022-11-21T04:22:21.479Z,4.95
2022-11-21T04:24:48.322Z,4.78
2022-11-21T04:27:15.001Z,5.40
2022-11-21T04:29:46.819Z,4.70
2022-11-21T04:32:13.518Z,5.15
2022-11-21T04:34:42.757Z,4.88
2022-11-21T04:37:11.745Z,5.07
2022-11-21T04:39:38.694Z,4.75
2022-11-21T04:42:05.433Z,4.80
2022-11-21T04:44:32.123Z,4.97
2022-11-21T04:47:05.032Z,4.82
2022-11-21T04:49:32.301Z,4.95
2022-11-21T04:51:58.872Z,5.03
2022-11-21T04:54:26.316Z,5.07
2022-11-21T04:56:53.193Z,5.20
2022-11-21T04:59:19.884Z,5.63
2022-11-21T05:01:47.834Z,5.00
2022-11-21T05:04:14.951Z,6.28
2022-11-21T05:06:41.547Z,3.92
2022-11-21T05:09:08.578Z,6.78
2022-11-21T05:11:54.490Z,6.75
2022-11-21T05:14:21.207Z,6.80
2022-11-21T05:16:51.521Z,6.88
2022-11-21T05:19:18.200Z,7.47
2022-11-21T05:21:47.711Z,7.15
2022-11-21T05:24:14.442Z,6.93
2022-11-21T05:26:41.152Z,6.22
2022-11-21T05:29:08.185Z,6.50
2022-11-21T05:31:38.084Z,6.03
2022-11-21T05:34:04.927Z,6.32
2022-11-21T05:36:31.527Z,6.40
2022-11-21T05:38:58.356Z,6.78
2022-11-21T05:41:25.098Z,6.70
2022-11-21T05:43:52.030Z,6.72
2022-11-21T05:46:21.954Z,8.00
2022-11-21T05:48:49.909Z,6.88
2022-11-21T05:51:17.740Z,7.10
2022-11-21T05:53:53.699Z,7.25
2022-11-21T05:56:20.290Z,7.40
2022-11-21T05:58:52.082Z,7.80
2022-11-21T06:01:39.728Z,8.25
2022-11-21T06:04:07.039Z,41.95
2022-11-21T06:06:33.640Z,9.23
2022-11-21T06:09:05.195Z,7.78
2022-11-21T06:11:34.567Z,8.23
2022-11-21T06:14:08.098Z,7.47
2022-11-21T06:16:34.739Z,7.43
2022-11-21T06:19:01.494Z,7.15
2022-11-21T06:21:29.559Z,7.00
2022-11-21T06:23:59.176Z,7.10
2022-11-21T06:26:27.700Z,6.90
2022-11-21T06:28:54.868Z,6.78
2022-11-21T06:31:24.115Z,7.10
2022-11-21T06:33:56.600Z,6.97
2022-11-21T06:36:25.072Z,6.53
2022-11-21T06:38:54.543Z,6.93
2022-11-21T06:41:24.899Z,7.40
2022-11-21T06:43:53.597Z,6.80
2022-11-21T06:46:21.229Z,6.28
2022-11-21T06:48:47.913Z,6.78
2022-11-21T06:51:23.621Z,7.55
2022-11-21T06:53:59.338Z,7.25
2022-11-21T06:56:28.101Z,6.90
2022-11-21T06:58:59.446Z,7.55
2022-11-21T07:01:29.416Z,6.82
2022-11-21T07:03:56.582Z,6.90
2022-11-21T07:06:29.396Z,7.47
2022-11-21T07:09:25.359Z,6.97
2022-11-21T07:11:44.465Z,6.00
2022-11-21T07:14:23.638Z,6.15
2022-11-21T07:16:50.768Z,7.55
2022-11-21T07:19:19.574Z,7.10
2022-11-21T07:21:46.318Z,6.13
2022-11-21T07:24:19.023Z,5.00
2022-11-21T07:26:45.704Z,4.30
2022-11-21T07:29:12.689Z,3.88
2022-11-21T07:31:41.765Z,3.63
2022-11-21T07:34:08.456Z,4.07
2022-11-21T07:36:36.360Z,3.28
2022-11-21T07:39:07.791Z,3.05
2022-11-21T07:41:34.513Z,3.00
2022-11-21T07:44:01.247Z,3.25
2022-11-21T07:46:28.322Z,3.13
2022-11-21T07:48:57.387Z,3.30
2022-11-21T07:51:27.619Z,3.03
2022-11-21T07:53:54.310Z,3.20
2022-11-21T07:56:20.866Z,3.10
2022-11-21T07:58:47.525Z,3.00
2022-11-21T08:01:14.774Z,3.10
2022-11-21T08:03:41.455Z,3.40
2022-11-21T08:06:16.630Z,3.42
2022-11-21T08:08:43.440Z,3.25
2022-11-21T08:11:10.265Z,3.65
2022-11-21T08:13:39.357Z,3.58
2022-11-21T08:16:06.471Z,3.58
2022-11-21T08:18:33.581Z,3.95
2022-11-21T08:21:04.450Z,3.13
2022-11-21T08:23:31.945Z,3.22
2022-11-21T08:25:59.041Z,2.78
2022-11-21T08:28:28.617Z,2.53
2022-11-21T08:30:55.735Z,2.85
2022-11-21T08:33:23.068Z,2.80
2022-11-21T08:35:49.874Z,2.60
2022-11-21T08:38:16.829Z,2.50
2022-11-21T08:40:43.773Z,2.92
2022-11-21T08:43:10.595Z,2.85
2022-11-21T08:45:38.716Z,2.95
2022-11-21T08:48:12.329Z,2.60
2022-11-21T08:50:39.424Z,4.00
2022-11-21T08:53:06.257Z,3.05
2022-11-21T08:55:35.973Z,3.67
2022-11-21T08:58:02.662Z,3.65
2022-11-21T09:00:29.785Z,2.70
2022-11-21T09:02:56.608Z,3.30
2022-11-21T09:05:26.362Z,2.53
2022-11-21T09:07:57.642Z,3.78
2022-11-21T09:10:26.069Z,2.97
2022-11-21T09:12:52.993Z,3.28
2022-11-21T09:15:38.297Z,4.22
2022-11-21T09:18:05.249Z,2.80
2022-11-21T09:20:34.504Z,4.30
2022-11-21T09:23:05.858Z,3.05
2022-11-21T09:25:33.041Z,3.47
2022-11-21T09:28:03.992Z,2.95
2022-11-21T09:30:30.903Z,3.10
2022-11-21T09:33:14.435Z,4.05
2022-11-21T09:35:44.341Z,4.70
2022-11-21T09:38:13.891Z,5.10
2022-11-21T09:40:47.885Z,3.25
2022-11-21T09:43:20.442Z,3.03
2022-11-21T09:45:55.462Z,3.10
2022-11-21T09:48:45.255Z,3.50
2022-11-21T09:51:15.416Z,4.03
2022-11-21T09:54:17.606Z,4.85
2022-11-21T09:56:47.587Z,3.30
2022-11-21T09:59:24.369Z,5.60
2022-11-21T10:01:51.995Z,5.88
2022-11-21T10:04:18.840Z,6.97
2022-11-21T10:07:11.368Z,6.30
2022-11-21T10:09:48.948Z,4.25
2022-11-21T10:12:39.823Z,5.60
2022-11-21T10:15:28.429Z,3.63
2022-11-21T10:18:24.382Z,4.72
2022-11-21T10:21:20.069Z,5.93
2022-11-21T10:24:05.086Z,3.78
2022-11-21T10:26:53.332Z,6.63
2022-11-21T10:30:04.257Z,6.13
2022-11-21T10:32:33.495Z,10.77
2022-11-21T10:35:12.513Z,15.13
2022-11-21T10:37:43.526Z,6.75
2022-11-21T10:40:27.513Z,7.45
2022-11-21T10:43:34.822Z,9.98
2022-11-21T10:46:01.705Z,11.02
2022-11-21T10:48:28.404Z,8.00
2022-11-21T10:50:55.012Z,9.95
2022-11-21T10:53:43.147Z,8.35
2022-11-21T10:56:21.748Z,14.70
2022-11-21T10:58:53.499Z,8.55
2022-11-21T11:01:31.866Z,8.85
2022-11-21T11:04:45.893Z,12.15
2022-11-21T11:07:31.753Z,8.65
2022-11-21T11:10:28.015Z,8.82
2022-11-21T11:13:44.675Z,15.80
2022-11-21T11:16:11.645Z,14.32
2022-11-21T11:18:47.762Z,9.07
2022-11-21T11:21:45.313Z,10.50
2022-11-21T11:24:11.891Z,8.60
2022-11-21T11:27:03.059Z,8.18
2022-11-21T11:29:35.344Z,10.50
2022-11-21T11:32:24.449Z,9.57
2022-11-21T11:34:51.196Z,11.63
2022-11-21T11:37:28.056Z,8.32
2022-11-21T11:40:30.590Z,8.30
2022-11-21T11:43:37.851Z,13.05
2022-11-21T11:46:54.098Z,10.45
2022-11-21T11:49:53.138Z,11.18
2022-11-21T11:52:25.402Z,12.13
2022-11-21T11:54:59.199Z,8.88
2022-11-21T11:57:37.261Z,9.95
2022-11-21T12:03:14.120Z,12.30
2022-11-21T12:06:08.683Z,9.25
2022-11-21T12:08:42.791Z,8.63
2022-11-21T12:11:55.959Z,9.60
2022-11-21T12:14:56.267Z,11.90
2022-11-21T12:17:34.913Z,10.18
2022-11-21T12:20:18.572Z,10.93
2022-11-21T12:22:49.067Z,8.55
2022-11-21T12:25:17.214Z,8.45
2022-11-21T12:27:49.925Z,9.13
2022-11-21T12:30:44.654Z,15.02
2022-11-21T12:33:27.264Z,8.93
2022-11-21T12:36:17.958Z,10.38
2022-11-21T12:38:54.478Z,9.82
2022-11-21T12:41:54.665Z,11.27
2022-11-21T12:44:43.270Z,10.25
2022-11-21T12:48:21.147Z,11.88
2022-11-21T12:51:50.384Z,10.10
2022-11-21T12:54:35.266Z,9.40
2022-11-21T12:57:22.955Z,11.35
2022-11-21T13:00:22.907Z,9.10
2022-11-21T13:03:15.252Z,8.57
2022-11-21T13:05:52.270Z,10.13
2022-11-21T13:08:28.935Z,12.27
2022-11-21T13:11:43.121Z,10.30
2022-11-21T13:14:17.758Z,9.20
2022-11-21T13:16:50.941Z,8.57
2022-11-21T13:19:30.629Z,8.43
2022-11-21T13:22:02.958Z,8.95
2022-11-21T13:24:57.359Z,7.75
2022-11-21T13:27:46.908Z,7.60
2022-11-21T13:30:23.221Z,7.70
2022-11-21T13:33:01.019Z,8.25
2022-11-21T13:36:04.840Z,7.57
2022-11-21T13:38:59.748Z,7.57
2022-11-21T13:42:18.600Z,8.23
2022-11-21T13:44:48.350Z,7.65
2022-11-21T13:47:54.015Z,7.38
2022-11-21T13:51:08.058Z,7.20
2022-11-21T13:53:58.211Z,7.75
2022-11-21T13:56:56.256Z,9.57
2022-11-21T13:59:47.056Z,8.82
2022-11-21T14:02:48.021Z,9.05
2022-11-21T14:05:47.743Z,7.93
2022-11-21T14:08:29.619Z,7.30
2022-11-21T14:11:18.886Z,7.65
2022-11-21T14:13:49.991Z,8.45
2022-11-21T14:16:49.604Z,10.60
2022-11-21T14:19:28.865Z,10.40
2022-11-21T14:21:55.755Z,8.25
2022-11-21T14:24:22.760Z,8.02
2022-11-21T14:26:54.036Z,12.93
2022-11-21T14:29:42.990Z,8.38
2022-11-21T14:32:19.964Z,6.88
2022-11-21T14:34:48.345Z,7.68
2022-11-21T14:37:15.260Z,7.70
2022-11-21T14:39:44.687Z,8.52
2022-11-21T14:42:17.885Z,12.63
2022-11-21T14:44:46.740Z,7.72
2022-11-21T14:47:25.720Z,8.18
2022-11-21T14:49:55.668Z,8.60
2022-11-21T14:52:35.304Z,14.60
2022-11-21T14:55:30.162Z,14.40
2022-11-21T14:58:04.285Z,8.73
2022-11-21T15:03:26.464Z,12.55
2022-11-21T15:06:08.471Z,8.18
2022-11-21T15:11:40.274Z,9.48
2022-11-21T15:14:24.448Z,12.50
2022-11-21T15:16:57.637Z,17.70
2022-11-21T15:19:30.671Z,16.08
2022-11-21T15:22:02.696Z,22.13
2022-11-21T15:24:43.341Z,12.10
2022-11-21T15:27:32.168Z,13.60
2022-11-21T15:30:12.878Z,12.90
2022-11-21T15:33:05.579Z,13.27
2022-11-21T15:35:43.320Z,12.77
2022-11-21T15:38:29.981Z,13.68
2022-11-21T15:41:11.571Z,13.23
2022-11-21T15:43:50.694Z,14.80
2022-11-21T15:46:19.022Z,20.77
2022-11-21T15:48:56.636Z,15.32
2022-11-21T15:54:28.356Z,17.90
2022-11-21T15:56:56.309Z,19.85
2022-11-21T15:57:14.293Z,16.23
2022-11-21T15:59:27.167Z,18.15
2022-11-21T16:01:54.114Z,16.67
2022-11-21T16:04:25.261Z,17.92
2022-11-21T16:06:56.785Z,16.80
2022-11-21T16:09:25.272Z,16.77
2022-11-21T16:11:52.516Z,18.73
2022-11-21T16:14:19.271Z,19.77
2022-11-21T16:16:48.961Z,17.40
2022-11-21T16:19:16.379Z,26.67
2022-11-21T16:21:45.017Z,18.00
2022-11-21T16:24:12.975Z,21.92
2022-11-21T16:26:41.767Z,17.27
2022-11-21T16:29:11.121Z,18.58
2022-11-21T16:31:40.830Z,20.30
2022-11-21T16:34:08.344Z,21.40
2022-11-21T16:36:40.466Z,23.98
2022-11-21T16:39:12.332Z,19.40
2022-11-21T16:41:41.249Z,20.92
2022-11-21T16:44:17.849Z,25.95
2022-11-21T16:46:49.420Z,21.98
2022-11-21T16:49:16.354Z,32.70
2022-11-21T16:51:46.221Z,19.52
2022-11-21T16:54:13.231Z,20.58
2022-11-21T16:56:45.496Z,29.30
2022-11-21T16:59:12.811Z,31.35
2022-11-21T17:04:22.796Z,26.65
2022-11-21T17:06:54.297Z,27.20
2022-11-21T17:11:51.811Z,36.25
2022-11-21T17:14:18.536Z,36.83
2022-11-21T17:16:45.947Z,23.73
2022-11-21T17:19:16.365Z,40.15
2022-11-21T17:21:43.163Z,26.88
2022-11-21T17:24:15.750Z,31.75
2022-11-21T17:26:48.100Z,40.22
2022-11-21T17:29:17.617Z,28.17
2022-11-21T17:31:44.486Z,39.05
2022-11-21T17:34:12.017Z,27.23
2022-11-21T17:36:38.799Z,23.42
2022-11-21T17:39:05.873Z,40.88
2022-11-21T17:41:32.852Z,27.13
2022-11-21T17:44:01.142Z,34.33
2022-11-21T17:46:32.405Z,27.10
2022-11-21T17:49:08.638Z,41.75
2022-11-21T17:51:41.024Z,27.20
2022-11-21T17:56:47.415Z,29.42
2022-11-21T17:59:18.273Z,26.42
2022-11-21T18:02:00.659Z,26.55
2022-11-21T18:04:27.858Z,33.70
2022-11-21T18:06:55.338Z,28.35
2022-11-21T18:09:22.288Z,30.50
2022-11-21T18:11:50.864Z,29.88
2022-11-21T18:14:17.653Z,28.42
2022-11-21T18:16:52.497Z,33.55
2022-11-21T18:19:20.111Z,45.10
2022-11-21T18:21:47.020Z,30.73
2022-11-21T18:24:14.126Z,34.40
2022-11-21T18:26:44.119Z,29.02
2022-11-21T18:32:06.681Z,28.02
2022-11-21T18:34:41.537Z,33.92
2022-11-21T18:37:13.301Z,34.65
2022-11-21T18:39:41.269Z,30.17
2022-11-21T18:42:09.421Z,35.33
2022-11-21T18:44:38.632Z,33.63
2022-11-21T18:47:19.628Z,45.75
2022-11-21T18:49:48.825Z,44.65
2022-11-21T18:52:15.880Z,33.10
2022-11-21T18:54:42.602Z,48.20
2022-11-21T18:57:09.436Z,32.45
2022-11-21T18:59:37.935Z,47.13
2022-11-21T19:02:05.065Z,36.95
2022-11-21T19:04:33.221Z,32.75
2022-11-21T19:07:00.102Z,31.90
2022-11-21T19:09:32.518Z,35.90
2022-11-21T19:12:07.903Z,28.85
2022-11-21T19:14:35.027Z,30.33
2022-11-21T19:17:02.217Z,44.47
2022-11-21T19:19:34.687Z,31.90
2022-11-21T19:22:04.937Z,37.60
2022-11-21T19:24:31.718Z,32.83
2022-11-21T19:27:00.613Z,39.40
2022-11-21T19:29:30.671Z,45.22
2022-11-21T19:31:57.726Z,37.40
2022-11-21T19:34:29.129Z,48.80
2022-11-21T19:37:01.317Z,33.70
2022-11-21T19:39:30.179Z,29.77
2022-11-21T19:42:00.749Z,30.63
2022-11-21T19:44:28.328Z,34.55
2022-11-21T19:47:05.513Z,37.17
2022-11-21T19:49:32.974Z,47.15
2022-11-21T19:52:02.776Z,34.65
2022-11-21T19:54:30.969Z,32.25
2022-11-21T19:56:59.396Z,31.60
2022-11-21T19:59:34.326Z,29.30
2022-11-21T20:02:04.035Z,29.75
2022-11-21T20:04:34.572Z,32.08
2022-11-21T20:07:07.530Z,47.53
2022-11-21T20:09:35.061Z,41.00
2022-11-21T20:12:02.538Z,36.67
2022-11-21T20:14:29.860Z,40.35
2022-11-21T20:17:02.327Z,34.30
2022-11-21T20:21:58.349Z,47.45
2022-11-21T20:24:25.358Z,47.65
2022-11-21T20:26:53.841Z,48.00
2022-11-21T20:29:21.915Z,49.50
2022-11-21T20:31:49.354Z,34.47
2022-11-21T20:34:16.637Z,34.22
2022-11-21T20:36:43.836Z,47.00
2022-11-21T20:39:18.197Z,40.58
2022-11-21T20:41:47.326Z,44.10
2022-11-21T20:47:11.034Z,26.40
2022-11-21T20:49:42.876Z,37.85
2022-11-21T20:53:43.873Z,34.28
2022-11-21T20:54:58.655Z,33.83
2022-11-21T20:57:29.429Z,42.65
2022-11-21T20:59:58.819Z,42.65
2022-11-21T21:02:27.948Z,42.30
2022-11-21T21:05:12.245Z,30.23
2022-11-21T21:07:45.785Z,33.35
2022-11-21T21:10:18.213Z,38.42
2022-11-21T21:12:56.309Z,41.42
2022-11-21T21:15:23.522Z,43.40
2022-11-21T21:17:50.923Z,38.60
2022-11-21T21:20:21.092Z,41.92
2022-11-21T21:22:50.395Z,43.63
2022-11-21T21:25:20.062Z,43.70
2022-11-21T21:27:55.175Z,31.65
2022-11-21T21:30:27.756Z,41.33
2022-11-21T21:35:21.372Z,42.78
2022-11-21T21:37:49.061Z,28.77
2022-11-21T21:40:18.502Z,25.60
2022-11-21T21:42:53.430Z,24.98
2022-11-21T21:45:23.744Z,37.72
2022-11-21T21:47:52.889Z,34.83
2022-11-21T21:50:35.812Z,26.02
2022-11-21T21:53:07.567Z,38.15
2022-11-21T21:55:34.950Z,37.88
2022-11-21T21:58:13.708Z,39.88
2022-11-21T22:00:48.690Z,40.35
2022-11-21T22:03:16.721Z,38.20
2022-11-21T22:05:48.715Z,37.75
2022-11-21T22:08:22.051Z,39.25
2022-11-21T22:10:49.424Z,33.58
2022-11-21T22:13:17.496Z,38.72
2022-11-21T22:15:47.541Z,39.10
2022-11-21T22:18:15.603Z,38.75
2022-11-21T22:20:42.834Z,39.33
2022-11-21T22:23:13.889Z,40.63
2022-11-21T22:25:43.071Z,40.72
2022-11-21T22:28:14.484Z,40.67
2022-11-21T22:30:42.923Z,39.72
2022-11-21T22:33:09.818Z,25.67
2022-11-21T22:35:36.816Z,39.67
2022-11-21T22:38:05.182Z,39.72
2022-11-21T22:40:33.673Z,31.70
2022-11-21T22:43:06.676Z,38.13
2022-11-21T22:45:37.022Z,21.52
2022-11-21T22:48:05.851Z,33.38
2022-11-21T22:50:40.632Z,35.63
2022-11-21T22:53:09.140Z,35.55
2022-11-21T22:55:42.400Z,34.80
2022-11-21T22:58:11.471Z,30.52
2022-11-21T23:00:38.887Z,36.42
2022-11-21T23:03:11.700Z,36.88
2022-11-21T23:05:49.668Z,37.45
2022-11-21T23:08:24.384Z,37.40
2022-11-21T23:11:13.840Z,35.88
2022-11-21T23:13:43.350Z,36.38
2022-11-21T23:16:15.048Z,35.00
2022-11-21T23:18:42.335Z,34.13
2022-11-21T23:21:13.690Z,33.63
2022-11-21T23:23:41.517Z,34.58
2022-11-21T23:26:11.784Z,33.50
2022-11-21T23:31:20.035Z,34.00
2022-11-21T23:33:46.746Z,34.25
2022-11-21T23:36:13.414Z,34.22
2022-11-21T23:38:40.197Z,34.28
2022-11-21T23:41:06.969Z,34.20
2022-11-21T23:43:33.799Z,34.75
2022-11-21T23:46:00.572Z,23.77
2022-11-21T23:48:28.596Z,32.83
2022-11-21T23:50:55.382Z,29.95
2022-11-21T23:53:23.411Z,19.08
2022-11-21T23:55:50.262Z,17.65
2022-11-21T23:58:17.442Z,18.23
